Chemult, Oregon
Current Conditions -  °F | °C
As of 2:35 PM on Monday 20 Oct 2014 (Local Time) from KBDN Reporting Station
Moderate Rain Moderate Rain  
Wind Chill: 50°   Ceiling: 100
Heat Index: 50°   Visibility: 1.7mi
Dew Point: 45°   Wind: 3mph
Humidity: 82%   Direction: 280°W
Pressure: 29.87"   Gusts: NA
Location:  43.22°N, 121.79°W
Report Text: KBDN 202135Z AUTO 28003KT 1 3/4SM RA BKN001 BKN018 OVC028 10/07 A2987 RMK AO2 P0013
Loading
Personal Weather Stations






























Interactive Weather Map New forecast layout! Learn more

10-Day Weather Forecast

Advertisements
Track Severe Weather on mobile